sensor_id;sensor_type;location;lat;lon;timestamp;P1;durP1;ratioP1;P2;durP2;ratioP2
23310;SDS011;11828;51.508;18.118;2023-08-07T00:01:01;91.32;;;57.25;;
23310;SDS011;11828;51.508;18.118;2023-08-07T00:03:33;82.82;;;54.60;;
23310;SDS011;11828;51.508;18.118;2023-08-07T00:06:01;76.88;;;53.42;;
23310;SDS011;11828;51.508;18.118;2023-08-07T00:08:27;87.60;;;56.08;;
23310;SDS011;11828;51.508;18.118;2023-08-07T00:11:03;99.57;;;57.72;;
23310;SDS011;11828;51.508;18.118;2023-08-07T00:13:33;97.78;;;58.28;;
23310;SDS011;11828;51.508;18.118;2023-08-07T00:15:59;80.82;;;54.40;;
23310;SDS011;11828;51.508;18.118;2023-08-07T00:18:25;94.32;;;57.80;;
23310;SDS011;11828;51.508;18.118;2023-08-07T00:20:53;88.47;;;56.05;;
23310;SDS011;11828;51.508;18.118;2023-08-07T00:23:19;96.13;;;57.70;;
23310;SDS011;11828;51.508;18.118;2023-08-07T00:25:45;87.50;;;56.83;;
23310;SDS011;11828;51.508;18.118;2023-08-07T00:28:11;95.70;;;58.35;;
23310;SDS011;11828;51.508;18.118;2023-08-07T00:30:37;81.57;;;55.63;;
23310;SDS011;11828;51.508;18.118;2023-08-07T00:33:03;99.13;;;58.55;;
23310;SDS011;11828;51.508;18.118;2023-08-07T00:35:30;113.15;;;62.33;;
23310;SDS011;11828;51.508;18.118;2023-08-07T00:37:56;103.20;;;61.13;;
23310;SDS011;11828;51.508;18.118;2023-08-07T00:40:22;92.90;;;57.78;;
23310;SDS011;11828;51.508;18.118;2023-08-07T00:42:48;97.05;;;58.78;;
23310;SDS011;11828;51.508;18.118;2023-08-07T00:45:14;98.35;;;58.58;;
23310;SDS011;11828;51.508;18.118;2023-08-07T00:47:43;98.07;;;59.22;;
23310;SDS011;11828;51.508;18.118;2023-08-07T00:50:09;115.32;;;62.67;;
23310;SDS011;11828;51.508;18.118;2023-08-07T00:52:36;116.35;;;61.00;;
23310;SDS011;11828;51.508;18.118;2023-08-07T00:55:03;101.22;;;60.47;;
23310;SDS011;11828;51.508;18.118;2023-08-07T00:57:29;99.50;;;59.92;;
23310;SDS011;11828;51.508;18.118;2023-08-07T00:59:57;113.35;;;62.47;;
23310;SDS011;11828;51.508;18.118;2023-08-07T01:02:24;112.57;;;61.70;;
23310;SDS011;11828;51.508;18.118;2023-08-07T01:04:50;121.82;;;63.70;;
23310;SDS011;11828;51.508;18.118;2023-08-07T01:07:16;125.72;;;64.60;;
23310;SDS011;11828;51.508;18.118;2023-08-07T01:09:43;108.50;;;61.78;;
23310;SDS011;11828;51.508;18.118;2023-08-07T01:12:10;122.13;;;63.95;;
23310;SDS011;11828;51.508;18.118;2023-08-07T01:14:49;130.93;;;65.72;;
23310;SDS011;11828;51.508;18.118;2023-08-07T01:17:37;105.38;;;60.22;;
23310;SDS011;11828;51.508;18.118;2023-08-07T01:20:04;117.47;;;62.85;;
23310;SDS011;11828;51.508;18.118;2023-08-07T01:22:32;121.22;;;63.72;;
23310;SDS011;11828;51.508;18.118;2023-08-07T01:24:58;119.22;;;63.35;;
23310;SDS011;11828;51.508;18.118;2023-08-07T01:27:33;111.82;;;61.55;;
23310;SDS011;11828;51.508;18.118;2023-08-07T01:30:38;138.18;;;66.28;;
23310;SDS011;11828;51.508;18.118;2023-08-07T01:35:53;126.63;;;64.68;;
23310;SDS011;11828;51.508;18.118;2023-08-07T01:38:24;134.45;;;66.75;;
23310;SDS011;11828;51.508;18.118;2023-08-07T01:40:52;115.35;;;62.75;;
23310;SDS011;11828;51.508;18.118;2023-08-07T01:43:19;152.10;;;70.32;;
23310;SDS011;11828;51.508;18.118;2023-08-07T01:45:46;131.35;;;66.75;;
23310;SDS011;11828;51.508;18.118;2023-08-07T01:48:12;141.40;;;67.80;;
23310;SDS011;11828;51.508;18.118;2023-08-07T01:50:39;131.40;;;66.53;;
23310;SDS011;11828;51.508;18.118;2023-08-07T01:53:05;124.35;;;64.85;;
23310;SDS011;11828;51.508;18.118;2023-08-07T01:55:31;139.43;;;67.60;;
23310;SDS011;11828;51.508;18.118;2023-08-07T01:57:58;131.23;;;66.53;;
23310;SDS011;11828;51.508;18.118;2023-08-07T02:00:24;136.60;;;66.35;;
23310;SDS011;11828;51.508;18.118;2023-08-07T02:02:50;122.50;;;64.68;;
23310;SDS011;11828;51.508;18.118;2023-08-07T02:05:16;123.97;;;65.00;;
23310;SDS011;11828;51.508;18.118;2023-08-07T02:07:44;130.68;;;66.25;;
23310;SDS011;11828;51.508;18.118;2023-08-07T02:10:10;143.75;;;68.22;;
23310;SDS011;11828;51.508;18.118;2023-08-07T02:12:37;147.30;;;69.80;;
23310;SDS011;11828;51.508;18.118;2023-08-07T02:15:04;151.15;;;69.38;;
23310;SDS011;11828;51.508;18.118;2023-08-07T02:17:31;111.50;;;62.22;;
23310;SDS011;11828;51.508;18.118;2023-08-07T02:19:58;135.70;;;66.25;;
23310;SDS011;11828;51.508;18.118;2023-08-07T02:22:24;134.85;;;66.25;;
23310;SDS011;11828;51.508;18.118;2023-08-07T02:24:50;140.32;;;67.28;;
23310;SDS011;11828;51.508;18.118;2023-08-07T02:27:16;154.70;;;69.00;;
23310;SDS011;11828;51.508;18.118;2023-08-07T02:29:43;151.55;;;68.82;;
23310;SDS011;11828;51.508;18.118;2023-08-07T02:32:09;112.35;;;62.50;;
23310;SDS011;11828;51.508;18.118;2023-08-07T02:34:35;109.65;;;61.88;;
23310;SDS011;11828;51.508;18.118;2023-08-07T02:37:01;120.93;;;62.88;;
23310;SDS011;11828;51.508;18.118;2023-08-07T02:39:28;142.25;;;64.95;;
23310;SDS011;11828;51.508;18.118;2023-08-07T02:41:54;103.28;;;59.67;;
23310;SDS011;11828;51.508;18.118;2023-08-07T02:44:20;98.65;;;58.63;;
23310;SDS011;11828;51.508;18.118;2023-08-07T02:46:46;115.68;;;61.85;;
23310;SDS011;11828;51.508;18.118;2023-08-07T02:49:12;97.63;;;58.97;;
23310;SDS011;11828;51.508;18.118;2023-08-07T02:51:39;105.13;;;60.88;;
23310;SDS011;11828;51.508;18.118;2023-08-07T02:54:05;98.25;;;58.22;;
23310;SDS011;11828;51.508;18.118;2023-08-07T02:56:31;106.38;;;60.95;;
23310;SDS011;11828;51.508;18.118;2023-08-07T02:58:58;117.07;;;62.33;;
23310;SDS011;11828;51.508;18.118;2023-08-07T03:01:26;142.57;;;65.85;;
23310;SDS011;11828;51.508;18.118;2023-08-07T03:03:53;103.28;;;59.75;;
23310;SDS011;11828;51.508;18.118;2023-08-07T03:06:19;100.65;;;59.22;;
23310;SDS011;11828;51.508;18.118;2023-08-07T03:08:45;125.90;;;63.90;;
23310;SDS011;11828;51.508;18.118;2023-08-07T03:11:11;106.65;;;60.25;;
23310;SDS011;11828;51.508;18.118;2023-08-07T03:13:37;124.20;;;64.32;;
23310;SDS011;11828;51.508;18.118;2023-08-07T03:16:04;137.93;;;67.82;;
23310;SDS011;11828;51.508;18.118;2023-08-07T03:18:31;141.15;;;67.22;;
23310;SDS011;11828;51.508;18.118;2023-08-07T03:20:59;116.03;;;63.10;;
23310;SDS011;11828;51.508;18.118;2023-08-07T03:23:26;109.28;;;62.47;;
23310;SDS011;11828;51.508;18.118;2023-08-07T03:26:05;127.25;;;64.28;;
23310;SDS011;11828;51.508;18.118;2023-08-07T03:28:37;159.63;;;68.22;;
23310;SDS011;11828;51.508;18.118;2023-08-07T03:31:04;159.43;;;71.05;;
23310;SDS011;11828;51.508;18.118;2023-08-07T03:33:30;168.27;;;74.13;;
23310;SDS011;11828;51.508;18.118;2023-08-07T03:35:56;147.32;;;69.68;;
23310;SDS011;11828;51.508;18.118;2023-08-07T03:38:22;178.95;;;74.82;;
23310;SDS011;11828;51.508;18.118;2023-08-07T03:40:49;149.43;;;70.28;;
23310;SDS011;11828;51.508;18.118;2023-08-07T03:43:15;138.27;;;66.80;;
23310;SDS011;11828;51.508;18.118;2023-08-07T03:45:41;157.98;;;71.20;;
23310;SDS011;11828;51.508;18.118;2023-08-07T03:48:08;152.90;;;70.78;;
23310;SDS011;11828;51.508;18.118;2023-08-07T03:50:34;124.70;;;64.72;;
23310;SDS011;11828;51.508;18.118;2023-08-07T03:53:03;115.30;;;62.80;;
23310;SDS011;11828;51.508;18.118;2023-08-07T03:55:32;125.82;;;65.18;;
23310;SDS011;11828;51.508;18.118;2023-08-07T03:57:58;129.35;;;65.07;;
23310;SDS011;11828;51.508;18.118;2023-08-07T04:00:24;128.95;;;64.63;;
23310;SDS011;11828;51.508;18.118;2023-08-07T04:02:50;121.15;;;64.80;;
23310;SDS011;11828;51.508;18.118;2023-08-07T04:05:17;124.22;;;65.95;;
23310;SDS011;11828;51.508;18.118;2023-08-07T04:07:43;142.68;;;69.60;;
23310;SDS011;11828;51.508;18.118;2023-08-07T04:10:09;135.80;;;67.28;;
23310;SDS011;11828;51.508;18.118;2023-08-07T04:12:35;115.05;;;62.97;;
23310;SDS011;11828;51.508;18.118;2023-08-07T04:15:01;130.88;;;65.15;;
23310;SDS011;11828;51.508;18.118;2023-08-07T04:17:28;160.20;;;71.50;;
23310;SDS011;11828;51.508;18.118;2023-08-07T04:19:54;95.35;;;59.35;;
23310;SDS011;11828;51.508;18.118;2023-08-07T04:22:20;93.57;;;58.88;;
23310;SDS011;11828;51.508;18.118;2023-08-07T04:24:46;82.25;;;55.15;;
23310;SDS011;11828;51.508;18.118;2023-08-07T04:27:12;99.88;;;59.50;;
23310;SDS011;11828;51.508;18.118;2023-08-07T04:29:38;101.15;;;59.33;;
23310;SDS011;11828;51.508;18.118;2023-08-07T04:32:05;77.38;;;54.58;;
23310;SDS011;11828;51.508;18.118;2023-08-07T04:34:31;89.93;;;56.33;;
23310;SDS011;11828;51.508;18.118;2023-08-07T04:36:58;71.07;;;52.15;;
23310;SDS011;11828;51.508;18.118;2023-08-07T04:39:24;111.82;;;61.08;;
23310;SDS011;11828;51.508;18.118;2023-08-07T04:41:50;95.20;;;59.22;;
23310;SDS011;11828;51.508;18.118;2023-08-07T04:44:16;89.65;;;57.45;;
23310;SDS011;11828;51.508;18.118;2023-08-07T04:46:42;119.78;;;64.55;;
23310;SDS011;11828;51.508;18.118;2023-08-07T04:49:08;99.38;;;59.90;;
23310;SDS011;11828;51.508;18.118;2023-08-07T04:51:34;88.60;;;57.28;;
23310;SDS011;11828;51.508;18.118;2023-08-07T04:54:01;96.97;;;59.60;;
23310;SDS011;11828;51.508;18.118;2023-08-07T04:56:27;70.43;;;51.72;;
23310;SDS011;11828;51.508;18.118;2023-08-07T04:58:53;108.57;;;60.85;;
23310;SDS011;11828;51.508;18.118;2023-08-07T05:01:19;109.47;;;62.72;;
23310;SDS011;11828;51.508;18.118;2023-08-07T05:03:46;89.70;;;58.08;;
23310;SDS011;11828;51.508;18.118;2023-08-07T05:06:12;85.38;;;56.67;;
23310;SDS011;11828;51.508;18.118;2023-08-07T05:08:38;73.85;;;52.85;;
23310;SDS011;11828;51.508;18.118;2023-08-07T05:11:04;72.78;;;52.38;;
23310;SDS011;11828;51.508;18.118;2023-08-07T05:13:30;91.63;;;56.92;;
23310;SDS011;11828;51.508;18.118;2023-08-07T05:15:56;114.45;;;64.15;;
23310;SDS011;11828;51.508;18.118;2023-08-07T05:18:22;137.48;;;67.72;;
23310;SDS011;11828;51.508;18.118;2023-08-07T05:20:49;123.38;;;66.63;;
23310;SDS011;11828;51.508;18.118;2023-08-07T05:23:15;100.32;;;60.63;;
23310;SDS011;11828;51.508;18.118;2023-08-07T05:25:41;120.82;;;63.47;;
23310;SDS011;11828;51.508;18.118;2023-08-07T05:28:11;118.97;;;62.28;;
23310;SDS011;11828;51.508;18.118;2023-08-07T05:30:37;92.53;;;58.45;;
23310;SDS011;11828;51.508;18.118;2023-08-07T05:33:03;88.68;;;55.72;;
23310;SDS011;11828;51.508;18.118;2023-08-07T05:35:30;73.47;;;52.45;;
23310;SDS011;11828;51.508;18.118;2023-08-07T05:37:56;71.95;;;52.53;;
23310;SDS011;11828;51.508;18.118;2023-08-07T05:40:22;55.47;;;46.60;;
23310;SDS011;11828;51.508;18.118;2023-08-07T05:42:48;43.28;;;38.72;;
23310;SDS011;11828;51.508;18.118;2023-08-07T05:45:14;43.55;;;38.95;;
23310;SDS011;11828;51.508;18.118;2023-08-07T05:47:40;43.30;;;38.53;;
23310;SDS011;11828;51.508;18.118;2023-08-07T05:50:07;45.75;;;39.45;;
23310;SDS011;11828;51.508;18.118;2023-08-07T05:52:33;51.95;;;43.75;;
23310;SDS011;11828;51.508;18.118;2023-08-07T05:55:00;43.20;;;38.97;;
23310;SDS011;11828;51.508;18.118;2023-08-07T05:57:26;60.28;;;47.60;;
23310;SDS011;11828;51.508;18.118;2023-08-07T05:59:52;41.28;;;30.42;;
23310;SDS011;11828;51.508;18.118;2023-08-07T06:02:18;51.80;;;37.95;;
23310;SDS011;11828;51.508;18.118;2023-08-07T06:04:45;42.15;;;34.65;;
23310;SDS011;11828;51.508;18.118;2023-08-07T06:07:11;34.03;;;30.30;;
23310;SDS011;11828;51.508;18.118;2023-08-07T06:09:37;36.58;;;31.27;;
23310;SDS011;11828;51.508;18.118;2023-08-07T06:12:03;44.30;;;27.95;;
23310;SDS011;11828;51.508;18.118;2023-08-07T06:14:30;52.00;;;43.28;;
23310;SDS011;11828;51.508;18.118;2023-08-07T06:16:56;36.13;;;32.38;;
23310;SDS011;11828;51.508;18.118;2023-08-07T06:19:26;50.55;;;38.60;;
23310;SDS011;11828;51.508;18.118;2023-08-07T06:21:53;36.22;;;30.52;;
23310;SDS011;11828;51.508;18.118;2023-08-07T06:24:19;36.80;;;33.08;;
23310;SDS011;11828;51.508;18.118;2023-08-07T06:26:45;26.02;;;23.15;;
23310;SDS011;11828;51.508;18.118;2023-08-07T06:29:12;40.78;;;32.10;;
23310;SDS011;11828;51.508;18.118;2023-08-07T06:31:38;44.22;;;33.75;;
23310;SDS011;11828;51.508;18.118;2023-08-07T06:34:04;24.35;;;11.63;;
23310;SDS011;11828;51.508;18.118;2023-08-07T06:36:30;22.88;;;9.07;;
23310;SDS011;11828;51.508;18.118;2023-08-07T06:38:57;31.45;;;8.65;;
23310;SDS011;11828;51.508;18.118;2023-08-07T06:41:23;37.58;;;8.73;;
23310;SDS011;11828;51.508;18.118;2023-08-07T06:43:49;36.25;;;8.65;;
23310;SDS011;11828;51.508;18.118;2023-08-07T06:46:17;19.15;;;4.15;;
23310;SDS011;11828;51.508;18.118;2023-08-07T06:48:43;27.90;;;4.45;;
23310;SDS011;11828;51.508;18.118;2023-08-07T06:51:09;53.80;;;6.32;;
23310;SDS011;11828;51.508;18.118;2023-08-07T06:53:36;20.55;;;3.53;;
23310;SDS011;11828;51.508;18.118;2023-08-07T06:56:02;17.77;;;3.22;;
23310;SDS011;11828;51.508;18.118;2023-08-07T06:58:29;20.63;;;3.42;;
23310;SDS011;11828;51.508;18.118;2023-08-07T07:00:55;46.78;;;5.80;;
23310;SDS011;11828;51.508;18.118;2023-08-07T07:03:21;43.40;;;5.40;;
23310;SDS011;11828;51.508;18.118;2023-08-07T07:05:48;24.98;;;3.65;;
23310;SDS011;11828;51.508;18.118;2023-08-07T07:08:15;20.00;;;3.28;;
23310;SDS011;11828;51.508;18.118;2023-08-07T07:10:41;15.55;;;2.72;;
23310;SDS011;11828;51.508;18.118;2023-08-07T07:13:07;34.60;;;4.43;;
23310;SDS011;11828;51.508;18.118;2023-08-07T07:15:34;15.27;;;2.72;;
23310;SDS011;11828;51.508;18.118;2023-08-07T07:18:01;18.88;;;2.97;;
23310;SDS011;11828;51.508;18.118;2023-08-07T07:20:28;22.90;;;3.45;;
23310;SDS011;11828;51.508;18.118;2023-08-07T07:22:54;18.95;;;2.97;;
23310;SDS011;11828;51.508;18.118;2023-08-07T07:25:20;20.83;;;3.53;;
23310;SDS011;11828;51.508;18.118;2023-08-07T07:27:46;22.45;;;3.47;;
23310;SDS011;11828;51.508;18.118;2023-08-07T07:30:13;19.45;;;3.13;;
23310;SDS011;11828;51.508;18.118;2023-08-07T07:32:39;17.65;;;2.97;;
23310;SDS011;11828;51.508;18.118;2023-08-07T07:35:05;14.02;;;2.78;;
23310;SDS011;11828;51.508;18.118;2023-08-07T07:37:32;10.95;;;2.40;;
23310;SDS011;11828;51.508;18.118;2023-08-07T07:39:59;12.75;;;2.72;;
23310;SDS011;11828;51.508;18.118;2023-08-07T07:42:25;15.38;;;2.55;;
23310;SDS011;11828;51.508;18.118;2023-08-07T07:44:51;9.98;;;2.33;;
23310;SDS011;11828;51.508;18.118;2023-08-07T07:47:17;10.40;;;2.22;;
23310;SDS011;11828;51.508;18.118;2023-08-07T07:49:44;7.28;;;2.00;;
23310;SDS011;11828;51.508;18.118;2023-08-07T07:52:15;17.13;;;3.15;;
23310;SDS011;11828;51.508;18.118;2023-08-07T07:54:41;16.88;;;3.25;;
23310;SDS011;11828;51.508;18.118;2023-08-07T07:57:07;14.25;;;2.80;;
23310;SDS011;11828;51.508;18.118;2023-08-07T07:59:33;10.93;;;2.42;;
23310;SDS011;11828;51.508;18.118;2023-08-07T08:01:59;12.15;;;2.67;;
23310;SDS011;11828;51.508;18.118;2023-08-07T08:04:25;13.00;;;2.58;;
23310;SDS011;11828;51.508;18.118;2023-08-07T08:06:52;11.25;;;2.40;;
23310;SDS011;11828;51.508;18.118;2023-08-07T08:09:18;16.88;;;2.75;;
23310;SDS011;11828;51.508;18.118;2023-08-07T08:11:44;11.00;;;2.35;;
23310;SDS011;11828;51.508;18.118;2023-08-07T08:14:10;16.73;;;2.95;;
23310;SDS011;11828;51.508;18.118;2023-08-07T08:16:36;13.50;;;2.60;;
23310;SDS011;11828;51.508;18.118;2023-08-07T08:19:02;18.13;;;2.78;;
23310;SDS011;11828;51.508;18.118;2023-08-07T08:21:29;9.55;;;2.30;;
23310;SDS011;11828;51.508;18.118;2023-08-07T08:23:56;17.35;;;2.78;;
23310;SDS011;11828;51.508;18.118;2023-08-07T08:26:22;12.60;;;2.50;;
23310;SDS011;11828;51.508;18.118;2023-08-07T08:28:48;22.25;;;3.25;;
23310;SDS011;11828;51.508;18.118;2023-08-07T08:31:14;17.08;;;3.00;;
23310;SDS011;11828;51.508;18.118;2023-08-07T08:33:40;15.82;;;2.70;;
23310;SDS011;11828;51.508;18.118;2023-08-07T08:36:07;12.93;;;2.25;;
23310;SDS011;11828;51.508;18.118;2023-08-07T08:38:33;11.48;;;2.33;;
23310;SDS011;11828;51.508;18.118;2023-08-07T08:41:01;9.35;;;2.20;;
23310;SDS011;11828;51.508;18.118;2023-08-07T08:43:29;15.15;;;2.90;;
23310;SDS011;11828;51.508;18.118;2023-08-07T08:46:01;13.38;;;2.30;;
23310;SDS011;11828;51.508;18.118;2023-08-07T08:48:30;17.45;;;2.65;;
23310;SDS011;11828;51.508;18.118;2023-08-07T08:51:02;11.07;;;2.38;;
23310;SDS011;11828;51.508;18.118;2023-08-07T08:53:30;10.38;;;2.13;;
23310;SDS011;11828;51.508;18.118;2023-08-07T08:55:57;10.82;;;2.13;;
23310;SDS011;11828;51.508;18.118;2023-08-07T08:58:25;8.45;;;2.10;;
23310;SDS011;11828;51.508;18.118;2023-08-07T09:00:51;14.05;;;2.90;;
23310;SDS011;11828;51.508;18.118;2023-08-07T09:03:18;8.02;;;2.17;;
23310;SDS011;11828;51.508;18.118;2023-08-07T09:05:45;6.25;;;1.90;;
23310;SDS011;11828;51.508;18.118;2023-08-07T09:08:12;7.95;;;2.03;;
23310;SDS011;11828;51.508;18.118;2023-08-07T09:10:39;8.90;;;2.00;;
23310;SDS011;11828;51.508;18.118;2023-08-07T09:13:06;7.20;;;1.95;;
23310;SDS011;11828;51.508;18.118;2023-08-07T09:15:40;9.90;;;2.25;;
23310;SDS011;11828;51.508;18.118;2023-08-07T09:18:12;8.25;;;2.03;;
23310;SDS011;11828;51.508;18.118;2023-08-07T09:20:39;9.48;;;2.08;;
23310;SDS011;11828;51.508;18.118;2023-08-07T09:23:05;7.93;;;2.10;;
23310;SDS011;11828;51.508;18.118;2023-08-07T09:25:32;9.95;;;2.30;;
23310;SDS011;11828;51.508;18.118;2023-08-07T09:28:03;11.70;;;2.75;;
23310;SDS011;11828;51.508;18.118;2023-08-07T09:30:31;7.90;;;2.60;;
23310;SDS011;11828;51.508;18.118;2023-08-07T09:33:00;11.93;;;2.60;;
23310;SDS011;11828;51.508;18.118;2023-08-07T09:35:28;9.15;;;2.20;;
23310;SDS011;11828;51.508;18.118;2023-08-07T09:37:59;12.90;;;2.65;;
23310;SDS011;11828;51.508;18.118;2023-08-07T09:40:26;8.07;;;2.22;;
23310;SDS011;11828;51.508;18.118;2023-08-07T09:42:53;6.97;;;2.30;;
23310;SDS011;11828;51.508;18.118;2023-08-07T09:45:21;8.27;;;2.45;;
23310;SDS011;11828;51.508;18.118;2023-08-07T09:47:58;8.45;;;2.38;;
23310;SDS011;11828;51.508;18.118;2023-08-07T09:50:26;9.75;;;2.80;;
23310;SDS011;11828;51.508;18.118;2023-08-07T09:52:53;9.52;;;2.30;;
23310;SDS011;11828;51.508;18.118;2023-08-07T09:55:21;6.93;;;2.42;;
23310;SDS011;11828;51.508;18.118;2023-08-07T09:57:48;6.63;;;2.30;;
23310;SDS011;11828;51.508;18.118;2023-08-07T10:00:15;9.35;;;2.60;;
23310;SDS011;11828;51.508;18.118;2023-08-07T10:02:45;9.15;;;2.50;;
23310;SDS011;11828;51.508;18.118;2023-08-07T10:05:13;6.55;;;2.35;;
23310;SDS011;11828;51.508;18.118;2023-08-07T10:07:40;6.78;;;2.55;;
23310;SDS011;11828;51.508;18.118;2023-08-07T10:10:07;10.27;;;2.65;;
23310;SDS011;11828;51.508;18.118;2023-08-07T10:12:35;6.68;;;2.50;;
23310;SDS011;11828;51.508;18.118;2023-08-07T10:15:03;8.25;;;2.20;;
23310;SDS011;11828;51.508;18.118;2023-08-07T10:17:30;13.80;;;3.22;;
23310;SDS011;11828;51.508;18.118;2023-08-07T10:19:59;8.23;;;2.65;;
23310;SDS011;11828;51.508;18.118;2023-08-07T10:22:26;8.93;;;2.53;;
23310;SDS011;11828;51.508;18.118;2023-08-07T10:24:56;6.22;;;2.42;;
23310;SDS011;11828;51.508;18.118;2023-08-07T10:27:29;9.77;;;2.67;;
23310;SDS011;11828;51.508;18.118;2023-08-07T10:30:00;9.73;;;2.90;;
23310;SDS011;11828;51.508;18.118;2023-08-07T10:32:31;7.65;;;2.40;;
23310;SDS011;11828;51.508;18.118;2023-08-07T10:34:58;7.55;;;2.22;;
23310;SDS011;11828;51.508;18.118;2023-08-07T10:37:39;10.25;;;2.45;;
23310;SDS011;11828;51.508;18.118;2023-08-07T10:40:10;9.38;;;2.63;;
23310;SDS011;11828;51.508;18.118;2023-08-07T10:42:58;14.82;;;3.25;;
23310;SDS011;11828;51.508;18.118;2023-08-07T10:45:38;10.52;;;2.83;;
23310;SDS011;11828;51.508;18.118;2023-08-07T10:48:08;11.05;;;2.75;;
23310;SDS011;11828;51.508;18.118;2023-08-07T10:53:32;8.15;;;2.28;;
23310;SDS011;11828;51.508;18.118;2023-08-07T10:56:15;12.85;;;2.75;;
23310;SDS011;11828;51.508;18.118;2023-08-07T10:58:49;8.15;;;2.60;;
23310;SDS011;11828;51.508;18.118;2023-08-07T11:04:00;9.30;;;2.25;;
23310;SDS011;11828;51.508;18.118;2023-08-07T11:06:33;13.60;;;2.90;;
23310;SDS011;11828;51.508;18.118;2023-08-07T11:09:02;14.15;;;3.97;;
23310;SDS011;11828;51.508;18.118;2023-08-07T11:11:40;24.52;;;4.00;;
23310;SDS011;11828;51.508;18.118;2023-08-07T11:14:12;10.32;;;2.67;;
23310;SDS011;11828;51.508;18.118;2023-08-07T11:16:43;23.55;;;3.72;;
23310;SDS011;11828;51.508;18.118;2023-08-07T11:19:13;15.73;;;3.38;;
23310;SDS011;11828;51.508;18.118;2023-08-07T11:21:41;12.43;;;2.90;;
23310;SDS011;11828;51.508;18.118;2023-08-07T11:24:08;11.55;;;3.03;;
23310;SDS011;11828;51.508;18.118;2023-08-07T11:26:37;9.48;;;2.53;;
23310;SDS011;11828;51.508;18.118;2023-08-07T11:29:03;9.80;;;2.55;;
23310;SDS011;11828;51.508;18.118;2023-08-07T11:31:30;11.20;;;2.38;;
23310;SDS011;11828;51.508;18.118;2023-08-07T11:33:57;11.32;;;2.58;;
23310;SDS011;11828;51.508;18.118;2023-08-07T11:36:24;17.80;;;3.53;;
23310;SDS011;11828;51.508;18.118;2023-08-07T11:38:50;22.27;;;3.50;;
23310;SDS011;11828;51.508;18.118;2023-08-07T11:41:17;18.23;;;2.92;;
23310;SDS011;11828;51.508;18.118;2023-08-07T11:43:44;13.90;;;2.58;;
23310;SDS011;11828;51.508;18.118;2023-08-07T11:46:12;9.52;;;2.33;;
23310;SDS011;11828;51.508;18.118;2023-08-07T11:48:40;9.43;;;2.22;;
23310;SDS011;11828;51.508;18.118;2023-08-07T11:51:08;14.98;;;2.63;;
23310;SDS011;11828;51.508;18.118;2023-08-07T11:53:36;11.52;;;2.20;;
23310;SDS011;11828;51.508;18.118;2023-08-07T11:56:08;21.20;;;3.33;;
23310;SDS011;11828;51.508;18.118;2023-08-07T11:58:37;9.55;;;2.17;;
23310;SDS011;11828;51.508;18.118;2023-08-07T12:01:05;49.30;;;5.95;;
23310;SDS011;11828;51.508;18.118;2023-08-07T12:03:36;10.88;;;2.28;;
23310;SDS011;11828;51.508;18.118;2023-08-07T12:06:05;20.55;;;4.68;;
23310;SDS011;11828;51.508;18.118;2023-08-07T12:08:34;17.98;;;4.80;;
23310;SDS011;11828;51.508;18.118;2023-08-07T12:11:03;15.75;;;3.97;;
23310;SDS011;11828;51.508;18.118;2023-08-07T12:13:31;19.08;;;4.28;;
23310;SDS011;11828;51.508;18.118;2023-08-07T12:16:00;33.03;;;5.43;;
23310;SDS011;11828;51.508;18.118;2023-08-07T12:18:29;14.77;;;3.35;;
23310;SDS011;11828;51.508;18.118;2023-08-07T12:20:58;9.45;;;2.80;;
23310;SDS011;11828;51.508;18.118;2023-08-07T12:23:26;25.95;;;3.97;;
23310;SDS011;11828;51.508;18.118;2023-08-07T12:25:53;13.98;;;2.65;;
23310;SDS011;11828;51.508;18.118;2023-08-07T12:28:19;10.48;;;2.60;;
23310;SDS011;11828;51.508;18.118;2023-08-07T12:30:46;13.38;;;2.75;;
23310;SDS011;11828;51.508;18.118;2023-08-07T12:33:13;8.13;;;2.50;;
23310;SDS011;11828;51.508;18.118;2023-08-07T12:35:40;17.25;;;3.15;;
23310;SDS011;11828;51.508;18.118;2023-08-07T12:38:07;9.73;;;2.15;;
23310;SDS011;11828;51.508;18.118;2023-08-07T12:40:35;9.18;;;2.17;;
23310;SDS011;11828;51.508;18.118;2023-08-07T12:43:02;13.50;;;2.40;;
23310;SDS011;11828;51.508;18.118;2023-08-07T12:45:30;12.63;;;2.70;;
23310;SDS011;11828;51.508;18.118;2023-08-07T12:47:56;9.77;;;2.10;;
23310;SDS011;11828;51.508;18.118;2023-08-07T12:50:22;10.88;;;2.25;;
23310;SDS011;11828;51.508;18.118;2023-08-07T12:52:48;10.82;;;2.30;;
23310;SDS011;11828;51.508;18.118;2023-08-07T12:55:15;11.07;;;2.38;;
23310;SDS011;11828;51.508;18.118;2023-08-07T12:57:41;16.42;;;2.78;;
23310;SDS011;11828;51.508;18.118;2023-08-07T13:00:09;12.57;;;2.47;;
23310;SDS011;11828;51.508;18.118;2023-08-07T13:02:43;11.45;;;2.50;;
23310;SDS011;11828;51.508;18.118;2023-08-07T13:05:12;10.25;;;2.35;;
23310;SDS011;11828;51.508;18.118;2023-08-07T13:07:40;8.52;;;2.08;;
23310;SDS011;11828;51.508;18.118;2023-08-07T13:10:08;11.40;;;2.20;;
23310;SDS011;11828;51.508;18.118;2023-08-07T13:12:37;8.43;;;2.10;;
23310;SDS011;11828;51.508;18.118;2023-08-07T13:15:07;9.25;;;2.28;;
23310;SDS011;11828;51.508;18.118;2023-08-07T13:17:37;13.02;;;2.40;;
23310;SDS011;11828;51.508;18.118;2023-08-07T13:20:04;14.52;;;2.65;;
23310;SDS011;11828;51.508;18.118;2023-08-07T13:22:35;11.73;;;2.55;;
23310;SDS011;11828;51.508;18.118;2023-08-07T13:25:06;22.10;;;3.20;;
23310;SDS011;11828;51.508;18.118;2023-08-07T13:27:34;17.05;;;3.05;;
23310;SDS011;11828;51.508;18.118;2023-08-07T13:30:03;10.48;;;2.22;;
23310;SDS011;11828;51.508;18.118;2023-08-07T13:32:30;14.23;;;2.65;;
23310;SDS011;11828;51.508;18.118;2023-08-07T13:34:57;10.02;;;2.13;;
23310;SDS011;11828;51.508;18.118;2023-08-07T13:37:23;11.40;;;2.58;;
23310;SDS011;11828;51.508;18.118;2023-08-07T13:39:49;13.63;;;2.65;;
23310;SDS011;11828;51.508;18.118;2023-08-07T13:42:17;30.85;;;4.30;;
23310;SDS011;11828;51.508;18.118;2023-08-07T13:44:44;12.88;;;2.55;;
23310;SDS011;11828;51.508;18.118;2023-08-07T13:47:11;21.95;;;3.65;;
23310;SDS011;11828;51.508;18.118;2023-08-07T13:49:37;9.82;;;2.50;;
23310;SDS011;11828;51.508;18.118;2023-08-07T13:52:04;8.70;;;2.10;;
23310;SDS011;11828;51.508;18.118;2023-08-07T13:54:31;13.77;;;2.70;;
23310;SDS011;11828;51.508;18.118;2023-08-07T13:56:57;16.17;;;2.85;;
23310;SDS011;11828;51.508;18.118;2023-08-07T13:59:23;10.85;;;2.42;;
23310;SDS011;11828;51.508;18.118;2023-08-07T14:01:49;8.43;;;2.38;;
23310;SDS011;11828;51.508;18.118;2023-08-07T14:04:15;16.10;;;2.88;;
23310;SDS011;11828;51.508;18.118;2023-08-07T14:06:41;18.45;;;3.13;;
23310;SDS011;11828;51.508;18.118;2023-08-07T14:09:09;12.73;;;2.53;;
23310;SDS011;11828;51.508;18.118;2023-08-07T14:11:36;14.57;;;2.78;;
23310;SDS011;11828;51.508;18.118;2023-08-07T14:14:04;9.73;;;2.45;;
23310;SDS011;11828;51.508;18.118;2023-08-07T14:16:30;14.15;;;2.90;;
23310;SDS011;11828;51.508;18.118;2023-08-07T14:18:57;17.63;;;3.22;;
23310;SDS011;11828;51.508;18.118;2023-08-07T14:21:23;13.38;;;2.65;;
23310;SDS011;11828;51.508;18.118;2023-08-07T14:23:50;10.45;;;2.30;;